
<gpx xmlns="http://www.topografix.com/GPX/1/1" xmlns:gpxx="http://www.garmin.com/xmlschemas/GpxExtensions/v3" xmlns:wptx1="http://www.garmin.com/xmlschemas/WaypointExtension/v1" xmlns:xsi="http://www.w3.org/2001/XMLSchema-instance" version="1.1" creator="Adze - https://getadze.com/" xsi:schemaLocation="http://www.topografix.com/GPX/1/1 http://www.topografix.com/GPX/1/1/gpx.xsd http://www.garmin.com/xmlschemas/GpxExtensions/v3 http://www8.garmin.com/xmlschemas/GpxExtensionsv3.xsd http://www.garmin.com/xmlschemas/WaypointExtension/v1 http://www8.garmin.com/xmlschemas/WaypointExtensionv1.xsd">
    <metadata>
        <name>Untitled Document</name>
        <link href="http://www.garmin.com"></link>
        <time>2018-03-06T07:55:58.849Z</time>
    </metadata>
    <wpt lon="101.317442" lat="14.322658">
        <ele>37.795200</ele>
        <name>Sida Resort</name>
        <cmt>29-SEP-07 1:06:17PM</cmt>
        <desc>29-SEP-07 1:06:17PM</desc>
        <sym>Lodging</sym>
        <type>user</type>
        <extensions>
            <gpxx:WaypointExtension>
                <gpxx:DisplayMode>SymbolAndName</gpxx:DisplayMode>
            </gpxx:WaypointExtension>
            <wptx1:WaypointExtension>
                <wptx1:DisplayMode>SymbolAndName</wptx1:DisplayMode>
            </wptx1:WaypointExtension>
        </extensions>
    </wpt>
    <trk>
        <name>September 2007 - Sunday</name>
        <extensions>
            <gpxx:TrackExtension>
                <gpxx:DisplayColor>Green</gpxx:DisplayColor>
            </gpxx:TrackExtension>
        </extensions>
        <trkseg>
            <trkpt lon="101.317370" lat="14.322899">
                <ele>31.860718</ele>
                <time>2007-09-30T03:02:47Z</time>
            </trkpt>
            <trkpt lon="101.317371" lat="14.322903">
                <ele>31.380127</ele>
                <time>2007-09-30T03:02:48Z</time>
            </trkpt>
            <trkpt lon="101.317392" lat="14.322997">
                <ele>30.418823</ele>
                <time>2007-09-30T03:02:55Z</time>
            </trkpt>
            <trkpt lon="101.317415" lat="14.323317">
                <ele>33.783447</ele>
                <time>2007-09-30T03:03:10Z</time>
            </trkpt>
            <trkpt lon="101.317397" lat="14.323371">
                <ele>33.783447</ele>
                <time>2007-09-30T03:03:12Z</time>
            </trkpt>
            <trkpt lon="101.316940" lat="14.323624">
                <ele>34.264160</ele>
                <time>2007-09-30T03:03:27Z</time>
            </trkpt>
            <trkpt lon="101.316968" lat="14.323798">
                <ele>35.225464</ele>
                <time>2007-09-30T03:03:32Z</time>
            </trkpt>
            <trkpt lon="101.317043" lat="14.323921">
                <ele>35.706055</ele>
                <time>2007-09-30T03:03:35Z</time>
            </trkpt>
            <trkpt lon="101.317161" lat="14.324108">
                <ele>35.225464</ele>
                <time>2007-09-30T03:03:41Z</time>
            </trkpt>
            <trkpt lon="101.317381" lat="14.324521">
                <ele>35.225464</ele>
                <time>2007-09-30T03:03:54Z</time>
            </trkpt>
            <trkpt lon="101.317300" lat="14.324599">
                <ele>34.744873</ele>
                <time>2007-09-30T03:03:58Z</time>
            </trkpt>
            <trkpt lon="101.316990" lat="14.324726">
                <ele>35.706055</ele>
                <time>2007-09-30T03:04:08Z</time>
            </trkpt>
            <trkpt lon="101.316871" lat="14.324666">
                <ele>36.186768</ele>
                <time>2007-09-30T03:04:11Z</time>
            </trkpt>
            <trkpt lon="101.316623" lat="14.324657">
                <ele>34.264160</ele>
                <time>2007-09-30T03:04:16Z</time>
            </trkpt>
            <trkpt lon="101.316327" lat="14.324711">
                <ele>36.186768</ele>
                <time>2007-09-30T03:04:22Z</time>
            </trkpt>
            <trkpt lon="101.315862" lat="14.325005">
                <ele>35.225464</ele>
                <time>2007-09-30T03:04:36Z</time>
            </trkpt>
            <trkpt lon="101.315537" lat="14.324697">
                <ele>35.225464</ele>
                <time>2007-09-30T03:04:46Z</time>
            </trkpt>
            <trkpt lon="101.314742" lat="14.323818">
                <ele>38.590088</ele>
                <time>2007-09-30T03:05:05Z</time>
            </trkpt>
            <trkpt lon="101.314063" lat="14.323326">
                <ele>39.551270</ele>
                <time>2007-09-30T03:05:20Z</time>
            </trkpt>
            <trkpt lon="101.313024" lat="14.322974">
                <ele>34.744873</ele>
                <time>2007-09-30T03:05:39Z</time>
            </trkpt>
            <trkpt lon="101.311979" lat="14.322677">
                <ele>30.418823</ele>
                <time>2007-09-30T03:05:54Z</time>
            </trkpt>
            <trkpt lon="101.310571" lat="14.322265">
                <ele>27.534912</ele>
                <time>2007-09-30T03:06:13Z</time>
            </trkpt>
            <trkpt lon="101.309251" lat="14.321900">
                <ele>28.496216</ele>
                <time>2007-09-30T03:06:34Z</time>
            </trkpt>
            <trkpt lon="101.308068" lat="14.321582">
                <ele>29.457520</ele>
                <time>2007-09-30T03:06:54Z</time>
            </trkpt>
            <trkpt lon="101.307257" lat="14.321676">
                <ele>28.496216</ele>
                <time>2007-09-30T03:07:07Z</time>
            </trkpt>
            <trkpt lon="101.306483" lat="14.321536">
                <ele>28.976929</ele>
                <time>2007-09-30T03:07:19Z</time>
            </trkpt>
            <trkpt lon="101.305400" lat="14.321094">
                <ele>28.976929</ele>
                <time>2007-09-30T03:07:37Z</time>
            </trkpt>
            <trkpt lon="101.304693" lat="14.320459">
                <ele>29.938110</ele>
                <time>2007-09-30T03:07:51Z</time>
            </trkpt>
            <trkpt lon="101.304174" lat="14.319946">
                <ele>31.380127</ele>
                <time>2007-09-30T03:08:02Z</time>
            </trkpt>
            <trkpt lon="101.303513" lat="14.319424">
                <ele>30.899536</ele>
                <time>2007-09-30T03:08:15Z</time>
            </trkpt>
            <trkpt lon="101.303391" lat="14.319474">
                <ele>30.899536</ele>
                <time>2007-09-30T03:08:19Z</time>
            </trkpt>
            <trkpt lon="101.303014" lat="14.320030">
                <ele>30.899536</ele>
                <time>2007-09-30T03:08:33Z</time>
            </trkpt>
            <trkpt lon="101.302475" lat="14.320793">
                <ele>30.899536</ele>
                <time>2007-09-30T03:08:51Z</time>
            </trkpt>
            <trkpt lon="101.302366" lat="14.320895">
                <ele>30.418823</ele>
                <time>2007-09-30T03:08:54Z</time>
            </trkpt>
            <trkpt lon="101.302139" lat="14.320962">
                <ele>30.899536</ele>
                <time>2007-09-30T03:08:59Z</time>
            </trkpt>
            <trkpt lon="101.301617" lat="14.320966">
                <ele>29.938110</ele>
                <time>2007-09-30T03:09:10Z</time>
            </trkpt>
            <trkpt lon="101.301418" lat="14.321011">
                <ele>29.457520</ele>
                <time>2007-09-30T03:09:14Z</time>
            </trkpt>
            <trkpt lon="101.300509" lat="14.321095">
                <ele>29.457520</ele>
                <time>2007-09-30T03:09:32Z</time>
            </trkpt>
            <trkpt lon="101.299745" lat="14.320982">
                <ele>30.418823</ele>
                <time>2007-09-30T03:09:47Z</time>
            </trkpt>
            <trkpt lon="101.298822" lat="14.320989">
                <ele>31.860718</ele>
                <time>2007-09-30T03:10:07Z</time>
            </trkpt>
            <trkpt lon="101.298531" lat="14.321019">
                <ele>32.822266</ele>
                <time>2007-09-30T03:10:14Z</time>
            </trkpt>
            <trkpt lon="101.298456" lat="14.321115">
                <ele>33.783447</ele>
                <time>2007-09-30T03:10:19Z</time>
            </trkpt>
            <trkpt lon="101.298606" lat="14.321523">
                <ele>33.783447</ele>
                <time>2007-09-30T03:10:34Z</time>
            </trkpt>
            <trkpt lon="101.298611" lat="14.321584">
                <ele>30.418823</ele>
                <time>2007-09-30T03:10:45Z</time>
            </trkpt>
            <trkpt lon="101.298575" lat="14.321589">
                <ele>25.131714</ele>
                <time>2007-09-30T03:11:19Z</time>
            </trkpt>
            <trkpt lon="101.298383" lat="14.321709">
                <ele>29.457520</ele>
                <time>2007-09-30T03:11:37Z</time>
            </trkpt>
            <trkpt lon="101.298353" lat="14.321775">
                <ele>34.744873</ele>
                <time>2007-09-30T03:11:54Z</time>
            </trkpt>
            <trkpt lon="101.298344" lat="14.321864">
                <ele>35.706055</ele>
                <time>2007-09-30T03:12:10Z</time>
            </trkpt>
            <trkpt lon="101.298294" lat="14.321903">
                <ele>35.706055</ele>
                <time>2007-09-30T03:12:24Z</time>
            </trkpt>
            <trkpt lon="101.298157" lat="14.322107">
                <ele>37.628662</ele>
                <time>2007-09-30T03:12:40Z</time>
            </trkpt>
            <trkpt lon="101.298053" lat="14.322153">
                <ele>38.590088</ele>
                <time>2007-09-30T03:12:55Z</time>
            </trkpt>
            <trkpt lon="101.297917" lat="14.322177">
                <ele>39.070679</ele>
                <time>2007-09-30T03:13:12Z</time>
            </trkpt>
            <trkpt lon="101.297905" lat="14.322193">
                <ele>38.590088</ele>
                <time>2007-09-30T03:13:14Z</time>
            </trkpt>
            <trkpt lon="101.297831" lat="14.322493">
                <ele>35.225464</ele>
                <time>2007-09-30T03:13:28Z</time>
            </trkpt>
            <trkpt lon="101.297884" lat="14.322711">
                <ele>35.225464</ele>
                <time>2007-09-30T03:13:47Z</time>
            </trkpt>
            <trkpt lon="101.297884" lat="14.322753">
                <ele>35.706055</ele>
                <time>2007-09-30T03:13:52Z</time>
            </trkpt>
            <trkpt lon="101.297887" lat="14.322916">
                <ele>36.186768</ele>
                <time>2007-09-30T03:14:09Z</time>
            </trkpt>
            <trkpt lon="101.297893" lat="14.323232">
                <ele>41.473999</ele>
                <time>2007-09-30T03:14:24Z</time>
            </trkpt>
            <trkpt lon="101.297951" lat="14.323674">
                <ele>39.551270</ele>
                <time>2007-09-30T03:14:43Z</time>
            </trkpt>
            <trkpt lon="101.298038" lat="14.324080">
                <ele>38.590088</ele>
                <time>2007-09-30T03:14:59Z</time>
            </trkpt>
            <trkpt lon="101.298146" lat="14.324612">
                <ele>38.590088</ele>
                <time>2007-09-30T03:15:17Z</time>
            </trkpt>
            <trkpt lon="101.298250" lat="14.325085">
                <ele>38.109375</ele>
                <time>2007-09-30T03:15:33Z</time>
            </trkpt>
            <trkpt lon="101.298399" lat="14.325401">
                <ele>37.628662</ele>
                <time>2007-09-30T03:15:49Z</time>
            </trkpt>
            <trkpt lon="101.298612" lat="14.325784">
                <ele>36.667480</ele>
                <time>2007-09-30T03:16:03Z</time>
            </trkpt>
            <trkpt lon="101.298818" lat="14.326118">
                <ele>35.706055</ele>
                <time>2007-09-30T03:16:16Z</time>
            </trkpt>
            <trkpt lon="101.299114" lat="14.326581">
                <ele>35.225464</ele>
                <time>2007-09-30T03:16:35Z</time>
            </trkpt>
            <trkpt lon="101.299462" lat="14.326803">
                <ele>35.706055</ele>
                <time>2007-09-30T03:16:49Z</time>
            </trkpt>
            <trkpt lon="101.299809" lat="14.326862">
                <ele>35.225464</ele>
                <time>2007-09-30T03:17:03Z</time>
            </trkpt>
            <trkpt lon="101.300206" lat="14.327009">
                <ele>35.706055</ele>
                <time>2007-09-30T03:17:18Z</time>
            </trkpt>
            <trkpt lon="101.300265" lat="14.327110">
                <ele>35.706055</ele>
                <time>2007-09-30T03:17:22Z</time>
            </trkpt>
            <trkpt lon="101.300021" lat="14.327403">
                <ele>36.186768</ele>
                <time>2007-09-30T03:17:36Z</time>
            </trkpt>
            <trkpt lon="101.299702" lat="14.327814">
                <ele>38.590088</ele>
                <time>2007-09-30T03:17:54Z</time>
            </trkpt>
            <trkpt lon="101.299605" lat="14.328226">
                <ele>37.148071</ele>
                <time>2007-09-30T03:18:12Z</time>
            </trkpt>
            <trkpt lon="101.299553" lat="14.328377">
                <ele>37.628662</ele>
                <time>2007-09-30T03:18:19Z</time>
            </trkpt>
            <trkpt lon="101.299653" lat="14.328785">
                <ele>37.628662</ele>
                <time>2007-09-30T03:18:36Z</time>
            </trkpt>
            <trkpt lon="101.299313" lat="14.329301">
                <ele>39.070679</ele>
                <time>2007-09-30T03:19:05Z</time>
            </trkpt>
            <trkpt lon="101.299004" lat="14.329534">
                <ele>39.551270</ele>
                <time>2007-09-30T03:19:23Z</time>
            </trkpt>
            <trkpt lon="101.298750" lat="14.329778">
                <ele>39.070679</ele>
                <time>2007-09-30T03:19:39Z</time>
            </trkpt>
            <trkpt lon="101.298366" lat="14.330061">
                <ele>40.993408</ele>
                <time>2007-09-30T03:19:58Z</time>
            </trkpt>
            <trkpt lon="101.297946" lat="14.330356">
                <ele>41.473999</ele>
                <time>2007-09-30T03:20:18Z</time>
            </trkpt>
            <trkpt lon="101.297664" lat="14.330668">
                <ele>41.473999</ele>
                <time>2007-09-30T03:20:34Z</time>
            </trkpt>
            <trkpt lon="101.297400" lat="14.331032">
                <ele>40.512817</ele>
                <time>2007-09-30T03:20:50Z</time>
            </trkpt>
            <trkpt lon="101.297029" lat="14.331407">
                <ele>39.551270</ele>
                <time>2007-09-30T03:21:10Z</time>
            </trkpt>
            <trkpt lon="101.296692" lat="14.331695">
                <ele>40.032104</ele>
                <time>2007-09-30T03:21:29Z</time>
            </trkpt>
            <trkpt lon="101.296218" lat="14.331884">
                <ele>41.473999</ele>
                <time>2007-09-30T03:21:48Z</time>
            </trkpt>
            <trkpt lon="101.295849" lat="14.331953">
                <ele>41.954712</ele>
                <time>2007-09-30T03:22:05Z</time>
            </trkpt>
            <trkpt lon="101.295522" lat="14.331961">
                <ele>41.473999</ele>
                <time>2007-09-30T03:22:23Z</time>
            </trkpt>
            <trkpt lon="101.295098" lat="14.331911">
                <ele>41.954712</ele>
                <time>2007-09-30T03:22:40Z</time>
            </trkpt>
            <trkpt lon="101.294688" lat="14.331925">
                <ele>43.396606</ele>
                <time>2007-09-30T03:22:58Z</time>
            </trkpt>
            <trkpt lon="101.294381" lat="14.331952">
                <ele>42.916016</ele>
                <time>2007-09-30T03:23:11Z</time>
            </trkpt>
            <trkpt lon="101.294108" lat="14.331976">
                <ele>44.358032</ele>
                <time>2007-09-30T03:23:24Z</time>
            </trkpt>
            <trkpt lon="101.293751" lat="14.331987">
                <ele>44.358032</ele>
                <time>2007-09-30T03:23:40Z</time>
            </trkpt>
            <trkpt lon="101.293353" lat="14.332030">
                <ele>43.877319</ele>
                <time>2007-09-30T03:23:56Z</time>
            </trkpt>
            <trkpt lon="101.293015" lat="14.331999">
                <ele>44.358032</ele>
                <time>2007-09-30T03:24:11Z</time>
            </trkpt>
            <trkpt lon="101.292952" lat="14.331922">
                <ele>44.358032</ele>
                <time>2007-09-30T03:24:16Z</time>
            </trkpt>
            <trkpt lon="101.292880" lat="14.331956">
                <ele>44.358032</ele>
                <time>2007-09-30T03:24:20Z</time>
            </trkpt>
            <trkpt lon="101.292512" lat="14.332255">
                <ele>45.799927</ele>
                <time>2007-09-30T03:24:37Z</time>
            </trkpt>
            <trkpt lon="101.291913" lat="14.332476">
                <ele>46.761230</ele>
                <time>2007-09-30T03:24:58Z</time>
            </trkpt>
            <trkpt lon="101.291523" lat="14.332710">
                <ele>47.241821</ele>
                <time>2007-09-30T03:25:11Z</time>
            </trkpt>
            <trkpt lon="101.291315" lat="14.332596">
                <ele>47.241821</ele>
                <time>2007-09-30T03:25:17Z</time>
            </trkpt>
            <trkpt lon="101.290827" lat="14.331941">
                <ele>47.722534</ele>
                <time>2007-09-30T03:25:37Z</time>
            </trkpt>
            <trkpt lon="101.290650" lat="14.331357">
                <ele>48.683960</ele>
                <time>2007-09-30T03:25:53Z</time>
            </trkpt>
            <trkpt lon="101.290501" lat="14.330619">
                <ele>48.203369</ele>
                <time>2007-09-30T03:26:13Z</time>
            </trkpt>
            <trkpt lon="101.290544" lat="14.330297">
                <ele>47.241821</ele>
                <time>2007-09-30T03:26:27Z</time>
            </trkpt>
            <trkpt lon="101.290560" lat="14.330285">
                <ele>46.761230</ele>
                <time>2007-09-30T03:26:33Z</time>
            </trkpt>
            <trkpt lon="101.290578" lat="14.330237">
                <ele>47.241821</ele>
                <time>2007-09-30T03:26:46Z</time>
            </trkpt>
            <trkpt lon="101.290588" lat="14.330250">
                <ele>48.203369</ele>
                <time>2007-09-30T03:27:45Z</time>
            </trkpt>
            <trkpt lon="101.290576" lat="14.330238">
                <ele>48.203369</ele>
                <time>2007-09-30T03:27:48Z</time>
            </trkpt>
            <trkpt lon="101.290547" lat="14.330234">
                <ele>48.203369</ele>
                <time>2007-09-30T03:27:50Z</time>
            </trkpt>
            <trkpt lon="101.290264" lat="14.329991">
                <ele>49.164551</ele>
                <time>2007-09-30T03:28:04Z</time>
            </trkpt>
            <trkpt lon="101.290202" lat="14.329830">
                <ele>49.164551</ele>
                <time>2007-09-30T03:28:19Z</time>
            </trkpt>
            <trkpt lon="101.290193" lat="14.329854">
                <ele>49.164551</ele>
                <time>2007-09-30T03:28:27Z</time>
            </trkpt>
            <trkpt lon="101.290378" lat="14.330110">
                <ele>47.241821</ele>
                <time>2007-09-30T03:28:40Z</time>
            </trkpt>
            <trkpt lon="101.290538" lat="14.330229">
                <ele>47.241821</ele>
                <time>2007-09-30T03:28:54Z</time>
            </trkpt>
            <trkpt lon="101.290544" lat="14.330261">
                <ele>48.683960</ele>
                <time>2007-09-30T03:29:11Z</time>
            </trkpt>
            <trkpt lon="101.290553" lat="14.330396">
                <ele>48.683960</ele>
                <time>2007-09-30T03:29:21Z</time>
            </trkpt>
            <trkpt lon="101.290531" lat="14.330681">
                <ele>47.722534</ele>
                <time>2007-09-30T03:29:37Z</time>
            </trkpt>
            <trkpt lon="101.290587" lat="14.330953">
                <ele>48.203369</ele>
                <time>2007-09-30T03:29:51Z</time>
            </trkpt>
            <trkpt lon="101.290679" lat="14.331361">
                <ele>47.722534</ele>
                <time>2007-09-30T03:30:07Z</time>
            </trkpt>
            <trkpt lon="101.290747" lat="14.331770">
                <ele>49.164551</ele>
                <time>2007-09-30T03:30:23Z</time>
            </trkpt>
            <trkpt lon="101.291048" lat="14.332230">
                <ele>47.722534</ele>
                <time>2007-09-30T03:30:41Z</time>
            </trkpt>
            <trkpt lon="101.291325" lat="14.332595">
                <ele>47.722534</ele>
                <time>2007-09-30T03:30:56Z</time>
            </trkpt>
            <trkpt lon="101.291620" lat="14.332705">
                <ele>47.722534</ele>
                <time>2007-09-30T03:31:09Z</time>
            </trkpt>
            <trkpt lon="101.291624" lat="14.332705">
                <ele>46.280640</ele>
                <time>2007-09-30T03:31:23Z</time>
            </trkpt>
            <trkpt lon="101.291616" lat="14.332703">
                <ele>48.203369</ele>
                <time>2007-09-30T03:32:19Z</time>
            </trkpt>
            <trkpt lon="101.291616" lat="14.332703">
                <ele>47.722534</ele>
                <time>2007-09-30T03:32:26Z</time>
            </trkpt>
            <trkpt lon="101.291584" lat="14.332702">
                <ele>48.203369</ele>
                <time>2007-09-30T03:32:28Z</time>
            </trkpt>
            <trkpt lon="101.291312" lat="14.332595">
                <ele>48.683960</ele>
                <time>2007-09-30T03:32:42Z</time>
            </trkpt>
            <trkpt lon="101.291000" lat="14.332180">
                <ele>47.241821</ele>
                <time>2007-09-30T03:32:59Z</time>
            </trkpt>
            <trkpt lon="101.290690" lat="14.331647">
                <ele>46.280640</ele>
                <time>2007-09-30T03:33:18Z</time>
            </trkpt>
            <trkpt lon="101.290650" lat="14.331287">
                <ele>45.799927</ele>
                <time>2007-09-30T03:33:32Z</time>
            </trkpt>
            <trkpt lon="101.290549" lat="14.330879">
                <ele>45.319214</ele>
                <time>2007-09-30T03:33:50Z</time>
            </trkpt>
            <trkpt lon="101.290539" lat="14.330436">
                <ele>44.838623</ele>
                <time>2007-09-30T03:34:05Z</time>
            </trkpt>
            <trkpt lon="101.290558" lat="14.330260">
                <ele>44.838623</ele>
                <time>2007-09-30T03:34:13Z</time>
            </trkpt>
            <trkpt lon="101.290622" lat="14.330197">
                <ele>44.838623</ele>
                <time>2007-09-30T03:34:18Z</time>
            </trkpt>
            <trkpt lon="101.290978" lat="14.329901">
                <ele>44.838623</ele>
                <time>2007-09-30T03:34:36Z</time>
            </trkpt>
            <trkpt lon="101.291245" lat="14.329827">
                <ele>45.319214</ele>
                <time>2007-09-30T03:34:48Z</time>
            </trkpt>
            <trkpt lon="101.291729" lat="14.329803">
                <ele>42.916016</ele>
                <time>2007-09-30T03:35:03Z</time>
            </trkpt>
            <trkpt lon="101.291905" lat="14.329773">
                <ele>43.396606</ele>
                <time>2007-09-30T03:35:10Z</time>
            </trkpt>
            <trkpt lon="101.291970" lat="14.329712">
                <ele>44.838623</ele>
                <time>2007-09-30T03:35:24Z</time>
            </trkpt>
            <trkpt lon="101.292002" lat="14.329677">
                <ele>45.319214</ele>
                <time>2007-09-30T03:35:34Z</time>
            </trkpt>
            <trkpt lon="101.291991" lat="14.329679">
                <ele>44.838623</ele>
                <time>2007-09-30T03:35:43Z</time>
            </trkpt>
            <trkpt lon="101.291771" lat="14.329830">
                <ele>44.838623</ele>
                <time>2007-09-30T03:35:55Z</time>
            </trkpt>
            <trkpt lon="101.291225" lat="14.329876">
                <ele>45.799927</ele>
                <time>2007-09-30T03:36:11Z</time>
            </trkpt>
            <trkpt lon="101.290884" lat="14.330013">
                <ele>45.799927</ele>
                <time>2007-09-30T03:36:23Z</time>
            </trkpt>
            <trkpt lon="101.290576" lat="14.330229">
                <ele>45.319214</ele>
                <time>2007-09-30T03:36:35Z</time>
            </trkpt>
            <trkpt lon="101.290255" lat="14.329975">
                <ele>46.761230</ele>
                <time>2007-09-30T03:36:51Z</time>
            </trkpt>
            <trkpt lon="101.290209" lat="14.329873">
                <ele>47.722534</ele>
                <time>2007-09-30T03:37:04Z</time>
            </trkpt>
            <trkpt lon="101.290194" lat="14.329847">
                <ele>50.606567</ele>
                <time>2007-09-30T03:37:25Z</time>
            </trkpt>
            <trkpt lon="101.290182" lat="14.329759">
                <ele>50.125977</ele>
                <time>2007-09-30T03:37:36Z</time>
            </trkpt>
            <trkpt lon="101.290177" lat="14.329751">
                <ele>48.203369</ele>
                <time>2007-09-30T03:38:00Z</time>
            </trkpt>
            <trkpt lon="101.290164" lat="14.329740">
                <ele>47.722534</ele>
                <time>2007-09-30T03:38:10Z</time>
            </trkpt>
            <trkpt lon="101.290149" lat="14.329728">
                <ele>47.722534</ele>
                <time>2007-09-30T03:38:12Z</time>
            </trkpt>
            <trkpt lon="101.290075" lat="14.329710">
                <ele>48.203369</ele>
                <time>2007-09-30T03:38:26Z</time>
            </trkpt>
            <trkpt lon="101.289890" lat="14.329770">
                <ele>49.164551</ele>
                <time>2007-09-30T03:38:39Z</time>
            </trkpt>
            <trkpt lon="101.289865" lat="14.329803">
                <ele>49.164551</ele>
                <time>2007-09-30T03:38:47Z</time>
            </trkpt>
            <trkpt lon="101.289818" lat="14.329998">
                <ele>50.125977</ele>
                <time>2007-09-30T03:39:07Z</time>
            </trkpt>
            <trkpt lon="101.289799" lat="14.330054">
                <ele>51.087158</ele>
                <time>2007-09-30T03:39:27Z</time>
            </trkpt>
            <trkpt lon="101.289783" lat="14.330072">
                <ele>51.087158</ele>
                <time>2007-09-30T03:39:42Z</time>
            </trkpt>
            <trkpt lon="101.289701" lat="14.330034">
                <ele>50.606567</ele>
                <time>2007-09-30T03:40:09Z</time>
            </trkpt>
            <trkpt lon="101.289802" lat="14.329577">
                <ele>50.606567</ele>
                <time>2007-09-30T03:40:27Z</time>
            </trkpt>
            <trkpt lon="101.290001" lat="14.328844">
                <ele>53.971191</ele>
                <time>2007-09-30T03:40:45Z</time>
            </trkpt>
            <trkpt lon="101.290187" lat="14.328250">
                <ele>54.932373</ele>
                <time>2007-09-30T03:40:55Z</time>
            </trkpt>
            <trkpt lon="101.290640" lat="14.327130">
                <ele>55.413086</ele>
                <time>2007-09-30T03:41:12Z</time>
            </trkpt>
            <trkpt lon="101.290854" lat="14.326452">
                <ele>53.971191</ele>
                <time>2007-09-30T03:41:22Z</time>
            </trkpt>
            <trkpt lon="101.291125" lat="14.326230">
                <ele>53.009766</ele>
                <time>2007-09-30T03:41:27Z</time>
            </trkpt>
            <trkpt lon="101.291331" lat="14.325766">
                <ele>53.009766</ele>
                <time>2007-09-30T03:41:34Z</time>
            </trkpt>
            <trkpt lon="101.291286" lat="14.325518">
                <ele>53.009766</ele>
                <time>2007-09-30T03:41:38Z</time>
            </trkpt>
            <trkpt lon="101.291076" lat="14.325405">
                <ele>52.529175</ele>
                <time>2007-09-30T03:41:41Z</time>
            </trkpt>
            <trkpt lon="101.290202" lat="14.324966">
                <ele>53.490479</ele>
                <time>2007-09-30T03:41:57Z</time>
            </trkpt>
            <trkpt lon="101.289736" lat="14.324837">
                <ele>50.125977</ele>
                <time>2007-09-30T03:42:04Z</time>
            </trkpt>
            <trkpt lon="101.289534" lat="14.324629">
                <ele>48.203369</ele>
                <time>2007-09-30T03:42:08Z</time>
            </trkpt>
            <trkpt lon="101.289390" lat="14.324115">
                <ele>46.280640</ele>
                <time>2007-09-30T03:42:23Z</time>
            </trkpt>
            <trkpt lon="101.289359" lat="14.323968">
                <ele>45.319214</ele>
                <time>2007-09-30T03:42:37Z</time>
            </trkpt>
            <trkpt lon="101.289355" lat="14.323959">
                <ele>42.916016</ele>
                <time>2007-09-30T03:43:17Z</time>
            </trkpt>
            <trkpt lon="101.289391" lat="14.324046">
                <ele>42.916016</ele>
                <time>2007-09-30T03:43:22Z</time>
            </trkpt>
            <trkpt lon="101.289578" lat="14.324590">
                <ele>44.358032</ele>
                <time>2007-09-30T03:43:37Z</time>
            </trkpt>
            <trkpt lon="101.289673" lat="14.324819">
                <ele>44.838623</ele>
                <time>2007-09-30T03:43:45Z</time>
            </trkpt>
            <trkpt lon="101.289621" lat="14.324859">
                <ele>45.319214</ele>
                <time>2007-09-30T03:43:49Z</time>
            </trkpt>
            <trkpt lon="101.289133" lat="14.325038">
                <ele>47.722534</ele>
                <time>2007-09-30T03:44:10Z</time>
            </trkpt>
            <trkpt lon="101.288827" lat="14.325219">
                <ele>47.241821</ele>
                <time>2007-09-30T03:44:26Z</time>
            </trkpt>
            <trkpt lon="101.288278" lat="14.325511">
                <ele>50.125977</ele>
                <time>2007-09-30T03:45:00Z</time>
            </trkpt>
            <trkpt lon="101.288040" lat="14.325408">
                <ele>49.164551</ele>
                <time>2007-09-30T03:45:12Z</time>
            </trkpt>
            <trkpt lon="101.287790" lat="14.325375">
                <ele>46.761230</ele>
                <time>2007-09-30T03:45:24Z</time>
            </trkpt>
            <trkpt lon="101.287588" lat="14.325338">
                <ele>46.761230</ele>
                <time>2007-09-30T03:45:34Z</time>
            </trkpt>
            <trkpt lon="101.287462" lat="14.324888">
                <ele>46.280640</ele>
                <time>2007-09-30T03:45:52Z</time>
            </trkpt>
            <trkpt lon="101.287412" lat="14.324693">
                <ele>46.761230</ele>
                <time>2007-09-30T03:46:07Z</time>
            </trkpt>
            <trkpt lon="101.287346" lat="14.324442">
                <ele>47.241821</ele>
                <time>2007-09-30T03:46:20Z</time>
            </trkpt>
            <trkpt lon="101.287311" lat="14.324214">
                <ele>49.164551</ele>
                <time>2007-09-30T03:46:26Z</time>
            </trkpt>
            <trkpt lon="101.287045" lat="14.324126">
                <ele>47.722534</ele>
                <time>2007-09-30T03:46:34Z</time>
            </trkpt>
            <trkpt lon="101.286008" lat="14.324304">
                <ele>47.722534</ele>
                <time>2007-09-30T03:46:58Z</time>
            </trkpt>
            <trkpt lon="101.285831" lat="14.324322">
                <ele>47.722534</ele>
                <time>2007-09-30T03:47:02Z</time>
            </trkpt>
            <trkpt lon="101.285179" lat="14.324412">
                <ele>49.164551</ele>
                <time>2007-09-30T03:47:21Z</time>
            </trkpt>
            <trkpt lon="101.284985" lat="14.324447">
                <ele>49.164551</ele>
                <time>2007-09-30T03:47:32Z</time>
            </trkpt>
            <trkpt lon="101.284655" lat="14.324637">
                <ele>49.164551</ele>
                <time>2007-09-30T03:47:42Z</time>
            </trkpt>
            <trkpt lon="101.284377" lat="14.324603">
                <ele>49.164551</ele>
                <time>2007-09-30T03:47:48Z</time>
            </trkpt>
            <trkpt lon="101.284168" lat="14.324572">
                <ele>49.164551</ele>
                <time>2007-09-30T03:47:54Z</time>
            </trkpt>
            <trkpt lon="101.283962" lat="14.324589">
                <ele>52.048584</ele>
                <time>2007-09-30T03:48:07Z</time>
            </trkpt>
            <trkpt lon="101.284189" lat="14.324575">
                <ele>54.451782</ele>
                <time>2007-09-30T03:48:17Z</time>
            </trkpt>
            <trkpt lon="101.284327" lat="14.324274">
                <ele>53.490479</ele>
                <time>2007-09-30T03:48:26Z</time>
            </trkpt>
            <trkpt lon="101.284345" lat="14.324236">
                <ele>53.009766</ele>
                <time>2007-09-30T03:48:27Z</time>
            </trkpt>
            <trkpt lon="101.284228" lat="14.323715">
                <ele>53.009766</ele>
                <time>2007-09-30T03:48:40Z</time>
            </trkpt>
            <trkpt lon="101.283937" lat="14.322966">
                <ele>53.009766</ele>
                <time>2007-09-30T03:49:00Z</time>
            </trkpt>
            <trkpt lon="101.283961" lat="14.322649">
                <ele>52.529175</ele>
                <time>2007-09-30T03:49:07Z</time>
            </trkpt>
            <trkpt lon="101.283967" lat="14.322489">
                <ele>52.529175</ele>
                <time>2007-09-30T03:49:10Z</time>
            </trkpt>
            <trkpt lon="101.283602" lat="14.321857">
                <ele>51.567871</ele>
                <time>2007-09-30T03:49:25Z</time>
            </trkpt>
            <trkpt lon="101.283445" lat="14.321917">
                <ele>52.048584</ele>
                <time>2007-09-30T03:49:32Z</time>
            </trkpt>
            <trkpt lon="101.282785" lat="14.322122">
                <ele>51.567871</ele>
                <time>2007-09-30T03:49:50Z</time>
            </trkpt>
            <trkpt lon="101.281753" lat="14.322349">
                <ele>51.087158</ele>
                <time>2007-09-30T03:50:14Z</time>
            </trkpt>
            <trkpt lon="101.280817" lat="14.322644">
                <ele>50.606567</ele>
                <time>2007-09-30T03:50:36Z</time>
            </trkpt>
            <trkpt lon="101.279967" lat="14.322945">
                <ele>52.529175</ele>
                <time>2007-09-30T03:50:54Z</time>
            </trkpt>
            <trkpt lon="101.278945" lat="14.323313">
                <ele>53.490479</ele>
                <time>2007-09-30T03:51:17Z</time>
            </trkpt>
            <trkpt lon="101.278509" lat="14.323379">
                <ele>56.374512</ele>
                <time>2007-09-30T03:51:29Z</time>
            </trkpt>
            <trkpt lon="101.277941" lat="14.323663">
                <ele>59.739136</ele>
                <time>2007-09-30T03:51:45Z</time>
            </trkpt>
            <trkpt lon="101.277242" lat="14.324024">
                <ele>63.103638</ele>
                <time>2007-09-30T03:52:06Z</time>
            </trkpt>
            <trkpt lon="101.276530" lat="14.324357">
                <ele>65.507080</ele>
                <time>2007-09-30T03:52:28Z</time>
            </trkpt>
            <trkpt lon="101.275718" lat="14.324570">
                <ele>65.507080</ele>
                <time>2007-09-30T03:52:49Z</time>
            </trkpt>
            <trkpt lon="101.275045" lat="14.324781">
                <ele>65.987671</ele>
                <time>2007-09-30T03:53:07Z</time>
            </trkpt>
            <trkpt lon="101.274607" lat="14.324977">
                <ele>65.987671</ele>
                <time>2007-09-30T03:53:19Z</time>
            </trkpt>
            <trkpt lon="101.274062" lat="14.325279">
                <ele>67.910278</ele>
                <time>2007-09-30T03:53:34Z</time>
            </trkpt>
            <trkpt lon="101.273425" lat="14.325643">
                <ele>68.871582</ele>
                <time>2007-09-30T03:53:51Z</time>
            </trkpt>
            <trkpt lon="101.273157" lat="14.326022">
                <ele>71.274902</ele>
                <time>2007-09-30T03:54:03Z</time>
            </trkpt>
            <trkpt lon="101.272855" lat="14.326598">
                <ele>74.158813</ele>
                <time>2007-09-30T03:54:23Z</time>
            </trkpt>
            <trkpt lon="101.272451" lat="14.327332">
                <ele>75.120239</ele>
                <time>2007-09-30T03:54:47Z</time>
            </trkpt>
            <trkpt lon="101.272002" lat="14.327780">
                <ele>77.523438</ele>
                <time>2007-09-30T03:55:03Z</time>
            </trkpt>
            <trkpt lon="101.271574" lat="14.328031">
                <ele>77.523438</ele>
                <time>2007-09-30T03:55:15Z</time>
            </trkpt>
            <trkpt lon="101.271079" lat="14.328341">
                <ele>80.407471</ele>
                <time>2007-09-30T03:55:31Z</time>
            </trkpt>
            <trkpt lon="101.270524" lat="14.328670">
                <ele>80.888184</ele>
                <time>2007-09-30T03:55:50Z</time>
            </trkpt>
            <trkpt lon="101.270125" lat="14.328926">
                <ele>80.407471</ele>
                <time>2007-09-30T03:56:06Z</time>
            </trkpt>
            <trkpt lon="101.269695" lat="14.329188">
                <ele>81.368774</ele>
                <time>2007-09-30T03:56:22Z</time>
            </trkpt>
            <trkpt lon="101.269100" lat="14.329554">
                <ele>85.213989</ele>
                <time>2007-09-30T03:56:43Z</time>
            </trkpt>
            <trkpt lon="101.268588" lat="14.330030">
                <ele>86.175293</ele>
                <time>2007-09-30T03:57:04Z</time>
            </trkpt>
            <trkpt lon="101.268249" lat="14.330458">
                <ele>88.098022</ele>
                <time>2007-09-30T03:57:23Z</time>
            </trkpt>
            <trkpt lon="101.267951" lat="14.330813">
                <ele>89.539917</ele>
                <time>2007-09-30T03:57:39Z</time>
            </trkpt>
            <trkpt lon="101.267526" lat="14.331280">
                <ele>90.020630</ele>
                <time>2007-09-30T03:58:01Z</time>
            </trkpt>
            <trkpt lon="101.267279" lat="14.331562">
                <ele>94.346558</ele>
                <time>2007-09-30T03:58:17Z</time>
            </trkpt>
            <trkpt lon="101.266821" lat="14.331728">
                <ele>95.307739</ele>
                <time>2007-09-30T03:58:33Z</time>
            </trkpt>
            <trkpt lon="101.266129" lat="14.331988">
                <ele>93.385132</ele>
                <time>2007-09-30T03:58:52Z</time>
            </trkpt>
            <trkpt lon="101.265618" lat="14.332185">
                <ele>95.788452</ele>
                <time>2007-09-30T03:59:07Z</time>
            </trkpt>
            <trkpt lon="101.265107" lat="14.332428">
                <ele>98.672485</ele>
                <time>2007-09-30T03:59:28Z</time>
            </trkpt>
            <trkpt lon="101.264530" lat="14.332726">
                <ele>101.556396</ele>
                <time>2007-09-30T03:59:52Z</time>
            </trkpt>
            <trkpt lon="101.263837" lat="14.333054">
                <ele>102.517700</ele>
                <time>2007-09-30T04:00:14Z</time>
            </trkpt>
            <trkpt lon="101.263755" lat="14.333072">
                <ele>102.037109</ele>
                <time>2007-09-30T04:00:16Z</time>
            </trkpt>
            <trkpt lon="101.263622" lat="14.333078">
                <ele>101.075684</ele>
                <time>2007-09-30T04:00:19Z</time>
            </trkpt>
            <trkpt lon="101.263441" lat="14.333034">
                <ele>100.595093</ele>
                <time>2007-09-30T04:00:23Z</time>
            </trkpt>
            <trkpt lon="101.263155" lat="14.332895">
                <ele>99.153076</ele>
                <time>2007-09-30T04:00:31Z</time>
            </trkpt>
            <trkpt lon="101.263050" lat="14.332955">
                <ele>98.672485</ele>
                <time>2007-09-30T04:00:35Z</time>
            </trkpt>
            <trkpt lon="101.262956" lat="14.333089">
                <ele>99.633789</ele>
                <time>2007-09-30T04:00:42Z</time>
            </trkpt>
            <trkpt lon="101.262604" lat="14.333355">
                <ele>101.556396</ele>
                <time>2007-09-30T04:01:01Z</time>
            </trkpt>
            <trkpt lon="101.262473" lat="14.333361">
                <ele>100.114502</ele>
                <time>2007-09-30T04:01:07Z</time>
            </trkpt>
            <trkpt lon="101.262176" lat="14.333547">
                <ele>99.153076</ele>
                <time>2007-09-30T04:01:21Z</time>
            </trkpt>
            <trkpt lon="101.261624" lat="14.333609">
                <ele>100.114502</ele>
                <time>2007-09-30T04:01:39Z</time>
            </trkpt>
            <trkpt lon="101.261348" lat="14.333537">
                <ele>99.153076</ele>
                <time>2007-09-30T04:01:53Z</time>
            </trkpt>
            <trkpt lon="101.260861" lat="14.333441">
                <ele>98.191895</ele>
                <time>2007-09-30T04:02:08Z</time>
            </trkpt>
            <trkpt lon="101.260556" lat="14.333534">
                <ele>97.230469</ele>
                <time>2007-09-30T04:02:22Z</time>
            </trkpt>
            <trkpt lon="101.260117" lat="14.333730">
                <ele>98.672485</ele>
                <time>2007-09-30T04:02:39Z</time>
            </trkpt>
            <trkpt lon="101.259752" lat="14.333968">
                <ele>97.711182</ele>
                <time>2007-09-30T04:02:56Z</time>
            </trkpt>
            <trkpt lon="101.259422" lat="14.334158">
                <ele>98.191895</ele>
                <time>2007-09-30T04:03:14Z</time>
            </trkpt>
            <trkpt lon="101.259107" lat="14.334269">
                <ele>98.672485</ele>
                <time>2007-09-30T04:03:28Z</time>
            </trkpt>
            <trkpt lon="101.258702" lat="14.334585">
                <ele>99.633789</ele>
                <time>2007-09-30T04:03:49Z</time>
            </trkpt>
            <trkpt lon="101.258283" lat="14.334751">
                <ele>100.595093</ele>
                <time>2007-09-30T04:04:07Z</time>
            </trkpt>
            <trkpt lon="101.257969" lat="14.334829">
                <ele>100.114502</ele>
                <time>2007-09-30T04:04:24Z</time>
            </trkpt>
            <trkpt lon="101.257496" lat="14.334977">
                <ele>102.517700</ele>
                <time>2007-09-30T04:04:46Z</time>
            </trkpt>
            <trkpt lon="101.257176" lat="14.335062">
                <ele>102.037109</ele>
                <time>2007-09-30T04:05:05Z</time>
            </trkpt>
            <trkpt lon="101.257169" lat="14.335048">
                <ele>103.479004</ele>
                <time>2007-09-30T04:05:33Z</time>
            </trkpt>
            <trkpt lon="101.257020" lat="14.334947">
                <ele>106.363037</ele>
                <time>2007-09-30T04:05:53Z</time>
            </trkpt>
            <trkpt lon="101.256960" lat="14.334911">
                <ele>105.882446</ele>
                <time>2007-09-30T04:06:08Z</time>
            </trkpt>
            <trkpt lon="101.256935" lat="14.334885">
                <ele>104.921021</ele>
                <time>2007-09-30T04:06:24Z</time>
            </trkpt>
            <trkpt lon="101.256859" lat="14.334861">
                <ele>103.479004</ele>
                <time>2007-09-30T04:06:45Z</time>
            </trkpt>
            <trkpt lon="101.256782" lat="14.334789">
                <ele>101.556396</ele>
                <time>2007-09-30T04:07:40Z</time>
            </trkpt>
            <trkpt lon="101.256959" lat="14.334519">
                <ele>102.037109</ele>
                <time>2007-09-30T04:07:57Z</time>
            </trkpt>
            <trkpt lon="101.256990" lat="14.334382">
                <ele>102.998291</ele>
                <time>2007-09-30T04:08:11Z</time>
            </trkpt>
            <trkpt lon="101.256974" lat="14.334354">
                <ele>102.998291</ele>
                <time>2007-09-30T04:08:14Z</time>
            </trkpt>
            <trkpt lon="101.256953" lat="14.334272">
                <ele>103.959717</ele>
                <time>2007-09-30T04:08:22Z</time>
            </trkpt>
            <trkpt lon="101.256991" lat="14.334225">
                <ele>103.959717</ele>
                <time>2007-09-30T04:08:27Z</time>
            </trkpt>
            <trkpt lon="101.257133" lat="14.334164">
                <ele>103.959717</ele>
                <time>2007-09-30T04:08:43Z</time>
            </trkpt>
            <trkpt lon="101.257177" lat="14.334152">
                <ele>103.479004</ele>
                <time>2007-09-30T04:08:46Z</time>
            </trkpt>
            <trkpt lon="101.257243" lat="14.334171">
                <ele>103.479004</ele>
                <time>2007-09-30T04:08:51Z</time>
            </trkpt>
            <trkpt lon="101.257267" lat="14.334178">
                <ele>102.998291</ele>
                <time>2007-09-30T04:08:57Z</time>
            </trkpt>
            <trkpt lon="101.257298" lat="14.334192">
                <ele>102.517700</ele>
                <time>2007-09-30T04:09:01Z</time>
            </trkpt>
            <trkpt lon="101.257377" lat="14.334238">
                <ele>100.114502</ele>
                <time>2007-09-30T04:09:20Z</time>
            </trkpt>
            <trkpt lon="101.257438" lat="14.334237">
                <ele>100.114502</ele>
                <time>2007-09-30T04:09:33Z</time>
            </trkpt>
            <trkpt lon="101.257570" lat="14.334210">
                <ele>100.595093</ele>
                <time>2007-09-30T04:09:51Z</time>
            </trkpt>
            <trkpt lon="101.257619" lat="14.334166">
                <ele>100.114502</ele>
                <time>2007-09-30T04:09:58Z</time>
            </trkpt>
            <trkpt lon="101.257671" lat="14.334101">
                <ele>100.595093</ele>
                <time>2007-09-30T04:10:09Z</time>
            </trkpt>
            <trkpt lon="101.257710" lat="14.334061">
                <ele>100.114502</ele>
                <time>2007-09-30T04:10:13Z</time>
            </trkpt>
            <trkpt lon="101.257771" lat="14.334048">
                <ele>99.633789</ele>
                <time>2007-09-30T04:10:18Z</time>
            </trkpt>
            <trkpt lon="101.257989" lat="14.333879">
                <ele>98.672485</ele>
                <time>2007-09-30T04:10:32Z</time>
            </trkpt>
            <trkpt lon="101.258028" lat="14.333812">
                <ele>98.672485</ele>
                <time>2007-09-30T04:10:36Z</time>
            </trkpt>
            <trkpt lon="101.257981" lat="14.333469">
                <ele>99.153076</ele>
                <time>2007-09-30T04:10:53Z</time>
            </trkpt>
            <trkpt lon="101.258044" lat="14.333373">
                <ele>98.672485</ele>
                <time>2007-09-30T04:10:59Z</time>
            </trkpt>
            <trkpt lon="101.258381" lat="14.333175">
                <ele>97.711182</ele>
                <time>2007-09-30T04:11:16Z</time>
            </trkpt>
            <trkpt lon="101.258491" lat="14.333089">
                <ele>97.230469</ele>
                <time>2007-09-30T04:11:22Z</time>
            </trkpt>
            <trkpt lon="101.258783" lat="14.333131">
                <ele>96.749878</ele>
                <time>2007-09-30T04:11:36Z</time>
            </trkpt>
            <trkpt lon="101.259047" lat="14.332947">
                <ele>95.307739</ele>
                <time>2007-09-30T04:11:50Z</time>
            </trkpt>
            <trkpt lon="101.259357" lat="14.332809">
                <ele>92.904541</ele>
                <time>2007-09-30T04:12:05Z</time>
            </trkpt>
            <trkpt lon="101.259499" lat="14.332518">
                <ele>91.943237</ele>
                <time>2007-09-30T04:12:20Z</time>
            </trkpt>
            <trkpt lon="101.259502" lat="14.332497">
                <ele>91.462524</ele>
                <time>2007-09-30T04:12:21Z</time>
            </trkpt>
            <trkpt lon="101.259490" lat="14.332426">
                <ele>91.462524</ele>
                <time>2007-09-30T04:12:25Z</time>
            </trkpt>
            <trkpt lon="101.259483" lat="14.332128">
                <ele>91.462524</ele>
                <time>2007-09-30T04:12:41Z</time>
            </trkpt>
            <trkpt lon="101.259708" lat="14.331907">
                <ele>90.981934</ele>
                <time>2007-09-30T04:12:54Z</time>
            </trkpt>
            <trkpt lon="101.259902" lat="14.331677">
                <ele>90.981934</ele>
                <time>2007-09-30T04:13:09Z</time>
            </trkpt>
            <trkpt lon="101.259918" lat="14.331636">
                <ele>92.423950</ele>
                <time>2007-09-30T04:13:20Z</time>
            </trkpt>
            <trkpt lon="101.259988" lat="14.331563">
                <ele>93.385132</ele>
                <time>2007-09-30T04:13:36Z</time>
            </trkpt>
            <trkpt lon="101.260177" lat="14.331474">
                <ele>93.385132</ele>
                <time>2007-09-30T04:13:50Z</time>
            </trkpt>
            <trkpt lon="101.260507" lat="14.331164">
                <ele>90.981934</ele>
                <time>2007-09-30T04:14:02Z</time>
            </trkpt>
            <trkpt lon="101.260884" lat="14.330608">
                <ele>91.462524</ele>
                <time>2007-09-30T04:14:17Z</time>
            </trkpt>
            <trkpt lon="101.261779" lat="14.329718">
                <ele>88.098022</ele>
                <time>2007-09-30T04:14:39Z</time>
            </trkpt>
            <trkpt lon="101.262774" lat="14.328885">
                <ele>84.733398</ele>
                <time>2007-09-30T04:14:59Z</time>
            </trkpt>
            <trkpt lon="101.263733" lat="14.327731">
                <ele>82.810791</ele>
                <time>2007-09-30T04:15:24Z</time>
            </trkpt>
            <trkpt lon="101.263884" lat="14.327638">
                <ele>82.330078</ele>
                <time>2007-09-30T04:15:27Z</time>
            </trkpt>
            <trkpt lon="101.264709" lat="14.327108">
                <ele>79.926636</ele>
                <time>2007-09-30T04:15:43Z</time>
            </trkpt>
            <trkpt lon="101.265697" lat="14.326340">
                <ele>75.600830</ele>
                <time>2007-09-30T04:16:03Z</time>
            </trkpt>
            <trkpt lon="101.266684" lat="14.325633">
                <ele>73.197632</ele>
                <time>2007-09-30T04:16:23Z</time>
            </trkpt>
            <trkpt lon="101.267347" lat="14.325259">
                <ele>71.274902</ele>
                <time>2007-09-30T04:16:36Z</time>
            </trkpt>
            <trkpt lon="101.268304" lat="14.324939">
                <ele>69.352295</ele>
                <time>2007-09-30T04:16:53Z</time>
            </trkpt>
            <trkpt lon="101.268625" lat="14.324734">
                <ele>68.871582</ele>
                <time>2007-09-30T04:16:59Z</time>
            </trkpt>
            <trkpt lon="101.269083" lat="14.324522">
                <ele>67.429688</ele>
                <time>2007-09-30T04:17:07Z</time>
            </trkpt>
            <trkpt lon="101.269380" lat="14.324135">
                <ele>67.429688</ele>
                <time>2007-09-30T04:17:15Z</time>
            </trkpt>
            <trkpt lon="101.269669" lat="14.323828">
                <ele>66.948975</ele>
                <time>2007-09-30T04:17:22Z</time>
            </trkpt>
            <trkpt lon="101.270760" lat="14.323042">
                <ele>63.103638</ele>
                <time>2007-09-30T04:17:44Z</time>
            </trkpt>
            <trkpt lon="101.271505" lat="14.322472">
                <ele>61.661743</ele>
                <time>2007-09-30T04:18:01Z</time>
            </trkpt>
            <trkpt lon="101.272289" lat="14.321701">
                <ele>61.661743</ele>
                <time>2007-09-30T04:18:20Z</time>
            </trkpt>
            <trkpt lon="101.272806" lat="14.321146">
                <ele>61.661743</ele>
                <time>2007-09-30T04:18:33Z</time>
            </trkpt>
            <trkpt lon="101.272942" lat="14.320951">
                <ele>61.661743</ele>
                <time>2007-09-30T04:18:37Z</time>
            </trkpt>
            <trkpt lon="101.273223" lat="14.320245">
                <ele>65.026367</ele>
                <time>2007-09-30T04:18:52Z</time>
            </trkpt>
            <trkpt lon="101.273546" lat="14.319649">
                <ele>67.429688</ele>
                <time>2007-09-30T04:19:10Z</time>
            </trkpt>
            <trkpt lon="101.274028" lat="14.318990">
                <ele>65.507080</ele>
                <time>2007-09-30T04:19:28Z</time>
            </trkpt>
            <trkpt lon="101.274212" lat="14.318831">
                <ele>65.026367</ele>
                <time>2007-09-30T04:19:33Z</time>
            </trkpt>
            <trkpt lon="101.274555" lat="14.318691">
                <ele>63.103638</ele>
                <time>2007-09-30T04:19:40Z</time>
            </trkpt>
            <trkpt lon="101.274702" lat="14.318432">
                <ele>63.103638</ele>
                <time>2007-09-30T04:19:47Z</time>
            </trkpt>
            <trkpt lon="101.274631" lat="14.317920">
                <ele>64.065063</ele>
                <time>2007-09-30T04:20:03Z</time>
            </trkpt>
            <trkpt lon="101.274577" lat="14.317411">
                <ele>67.910278</ele>
                <time>2007-09-30T04:20:22Z</time>
            </trkpt>
            <trkpt lon="101.274832" lat="14.317042">
                <ele>69.352295</ele>
                <time>2007-09-30T04:20:38Z</time>
            </trkpt>
            <trkpt lon="101.275439" lat="14.316774">
                <ele>66.948975</ele>
                <time>2007-09-30T04:20:52Z</time>
            </trkpt>
            <trkpt lon="101.276431" lat="14.316389">
                <ele>63.103638</ele>
                <time>2007-09-30T04:21:12Z</time>
            </trkpt>
            <trkpt lon="101.277438" lat="14.316013">
                <ele>60.700317</ele>
                <time>2007-09-30T04:21:30Z</time>
            </trkpt>
            <trkpt lon="101.277617" lat="14.315872">
                <ele>60.219727</ele>
                <time>2007-09-30T04:21:34Z</time>
            </trkpt>
            <trkpt lon="101.278305" lat="14.315182">
                <ele>60.219727</ele>
                <time>2007-09-30T04:21:53Z</time>
            </trkpt>
            <trkpt lon="101.279048" lat="14.314605">
                <ele>56.855103</ele>
                <time>2007-09-30T04:22:09Z</time>
            </trkpt>
            <trkpt lon="101.280003" lat="14.313927">
                <ele>52.048584</ele>
                <time>2007-09-30T04:22:28Z</time>
            </trkpt>
            <trkpt lon="101.280608" lat="14.313480">
                <ele>50.125977</ele>
                <time>2007-09-30T04:22:40Z</time>
            </trkpt>
            <trkpt lon="101.280888" lat="14.313458">
                <ele>48.683960</ele>
                <time>2007-09-30T04:22:44Z</time>
            </trkpt>
            <trkpt lon="101.282049" lat="14.313604">
                <ele>45.319214</ele>
                <time>2007-09-30T04:23:00Z</time>
            </trkpt>
            <trkpt lon="101.282304" lat="14.313530">
                <ele>45.319214</ele>
                <time>2007-09-30T04:23:04Z</time>
            </trkpt>
            <trkpt lon="101.282470" lat="14.313425">
                <ele>44.838623</ele>
                <time>2007-09-30T04:23:07Z</time>
            </trkpt>
            <trkpt lon="101.282917" lat="14.312679">
                <ele>43.877319</ele>
                <time>2007-09-30T04:23:20Z</time>
            </trkpt>
            <trkpt lon="101.283055" lat="14.311830">
                <ele>43.877319</ele>
                <time>2007-09-30T04:23:34Z</time>
            </trkpt>
            <trkpt lon="101.282805" lat="14.311452">
                <ele>43.877319</ele>
                <time>2007-09-30T04:23:42Z</time>
            </trkpt>
            <trkpt lon="101.281820" lat="14.310976">
                <ele>44.358032</ele>
                <time>2007-09-30T04:24:01Z</time>
            </trkpt>
            <trkpt lon="101.281725" lat="14.310927">
                <ele>44.358032</ele>
                <time>2007-09-30T04:24:03Z</time>
            </trkpt>
            <trkpt lon="101.281603" lat="14.310825">
                <ele>44.358032</ele>
                <time>2007-09-30T04:24:06Z</time>
            </trkpt>
            <trkpt lon="101.281527" lat="14.310474">
                <ele>44.838623</ele>
                <time>2007-09-30T04:24:13Z</time>
            </trkpt>
            <trkpt lon="101.281550" lat="14.310375">
                <ele>44.838623</ele>
                <time>2007-09-30T04:24:15Z</time>
            </trkpt>
            <trkpt lon="101.281900" lat="14.309635">
                <ele>47.241821</ele>
                <time>2007-09-30T04:24:34Z</time>
            </trkpt>
            <trkpt lon="101.282121" lat="14.309185">
                <ele>47.722534</ele>
                <time>2007-09-30T04:24:51Z</time>
            </trkpt>
            <trkpt lon="101.282198" lat="14.308621">
                <ele>52.048584</ele>
                <time>2007-09-30T04:25:12Z</time>
            </trkpt>
            <trkpt lon="101.282246" lat="14.308316">
                <ele>51.087158</ele>
                <time>2007-09-30T04:25:21Z</time>
            </trkpt>
            <trkpt lon="101.282658" lat="14.307862">
                <ele>48.203369</ele>
                <time>2007-09-30T04:25:34Z</time>
            </trkpt>
            <trkpt lon="101.283271" lat="14.307379">
                <ele>46.761230</ele>
                <time>2007-09-30T04:25:49Z</time>
            </trkpt>
            <trkpt lon="101.283431" lat="14.307270">
                <ele>46.280640</ele>
                <time>2007-09-30T04:25:53Z</time>
            </trkpt>
            <trkpt lon="101.283767" lat="14.307257">
                <ele>44.358032</ele>
                <time>2007-09-30T04:26:00Z</time>
            </trkpt>
            <trkpt lon="101.284310" lat="14.307381">
                <ele>41.954712</ele>
                <time>2007-09-30T04:26:09Z</time>
            </trkpt>
            <trkpt lon="101.284512" lat="14.307379">
                <ele>41.473999</ele>
                <time>2007-09-30T04:26:12Z</time>
            </trkpt>
            <trkpt lon="101.284810" lat="14.307293">
                <ele>41.473999</ele>
                <time>2007-09-30T04:26:17Z</time>
            </trkpt>
            <trkpt lon="101.284914" lat="14.307238">
                <ele>41.473999</ele>
                <time>2007-09-30T04:26:19Z</time>
            </trkpt>
            <trkpt lon="101.285711" lat="14.306484">
                <ele>40.993408</ele>
                <time>2007-09-30T04:26:38Z</time>
            </trkpt>
            <trkpt lon="101.286114" lat="14.306061">
                <ele>38.590088</ele>
                <time>2007-09-30T04:26:50Z</time>
            </trkpt>
            <trkpt lon="101.286056" lat="14.306018">
                <ele>39.070679</ele>
                <time>2007-09-30T04:27:03Z</time>
            </trkpt>
            <trkpt lon="101.286036" lat="14.306022">
                <ele>39.070679</ele>
                <time>2007-09-30T04:27:05Z</time>
            </trkpt>
            <trkpt lon="101.285978" lat="14.306075">
                <ele>39.070679</ele>
                <time>2007-09-30T04:27:11Z</time>
            </trkpt>
            <trkpt lon="101.285901" lat="14.306022">
                <ele>38.109375</ele>
                <time>2007-09-30T04:27:15Z</time>
            </trkpt>
            <trkpt lon="101.285680" lat="14.305701">
                <ele>38.109375</ele>
                <time>2007-09-30T04:27:27Z</time>
            </trkpt>
            <trkpt lon="101.285232" lat="14.305216">
                <ele>37.628662</ele>
                <time>2007-09-30T04:27:43Z</time>
            </trkpt>
            <trkpt lon="101.285256" lat="14.304834">
                <ele>40.993408</ele>
                <time>2007-09-30T04:27:56Z</time>
            </trkpt>
            <trkpt lon="101.285240" lat="14.304483">
                <ele>45.319214</ele>
                <time>2007-09-30T04:28:15Z</time>
            </trkpt>
            <trkpt lon="101.285270" lat="14.304034">
                <ele>45.799927</ele>
                <time>2007-09-30T04:28:32Z</time>
            </trkpt>
            <trkpt lon="101.285338" lat="14.303758">
                <ele>46.280640</ele>
                <time>2007-09-30T04:28:43Z</time>
            </trkpt>
            <trkpt lon="101.285355" lat="14.303694">
                <ele>43.877319</ele>
                <time>2007-09-30T04:29:04Z</time>
            </trkpt>
            <trkpt lon="101.285378" lat="14.303689">
                <ele>48.683960</ele>
                <time>2007-09-30T04:29:25Z</time>
            </trkpt>
            <trkpt lon="101.285424" lat="14.303495">
                <ele>50.606567</ele>
                <time>2007-09-30T04:29:44Z</time>
            </trkpt>
            <trkpt lon="101.285425" lat="14.303431">
                <ele>51.087158</ele>
                <time>2007-09-30T04:29:50Z</time>
            </trkpt>
            <trkpt lon="101.285401" lat="14.303224">
                <ele>52.529175</ele>
                <time>2007-09-30T04:30:10Z</time>
            </trkpt>
            <trkpt lon="101.285374" lat="14.303001">
                <ele>51.567871</ele>
                <time>2007-09-30T04:30:24Z</time>
            </trkpt>
            <trkpt lon="101.285302" lat="14.302439">
                <ele>55.413086</ele>
                <time>2007-09-30T04:30:48Z</time>
            </trkpt>
            <trkpt lon="101.285274" lat="14.302180">
                <ele>57.335815</ele>
                <time>2007-09-30T04:31:04Z</time>
            </trkpt>
            <trkpt lon="101.285163" lat="14.301875">
                <ele>58.777710</ele>
                <time>2007-09-30T04:31:22Z</time>
            </trkpt>
            <trkpt lon="101.284882" lat="14.301512">
                <ele>57.816528</ele>
                <time>2007-09-30T04:31:38Z</time>
            </trkpt>
            <trkpt lon="101.284595" lat="14.300989">
                <ele>56.374512</ele>
                <time>2007-09-30T04:31:53Z</time>
            </trkpt>
            <trkpt lon="101.284686" lat="14.300174">
                <ele>57.335815</ele>
                <time>2007-09-30T04:32:32Z</time>
            </trkpt>
            <trkpt lon="101.284698" lat="14.299881">
                <ele>53.009766</ele>
                <time>2007-09-30T04:32:47Z</time>
            </trkpt>
            <trkpt lon="101.284716" lat="14.299526">
                <ele>49.645264</ele>
                <time>2007-09-30T04:33:01Z</time>
            </trkpt>
            <trkpt lon="101.284769" lat="14.298670">
                <ele>38.590088</ele>
                <time>2007-09-30T04:33:21Z</time>
            </trkpt>
            <trkpt lon="101.284800" lat="14.298108">
                <ele>32.341553</ele>
                <time>2007-09-30T04:33:33Z</time>
            </trkpt>
            <trkpt lon="101.284800" lat="14.298086">
                <ele>30.899536</ele>
                <time>2007-09-30T04:33:46Z</time>
            </trkpt>
            <trkpt lon="101.284768" lat="14.298055">
                <ele>29.938110</ele>
                <time>2007-09-30T04:34:01Z</time>
            </trkpt>
            <trkpt lon="101.284452" lat="14.297987">
                <ele>28.976929</ele>
                <time>2007-09-30T04:34:13Z</time>
            </trkpt>
            <trkpt lon="101.284089" lat="14.297936">
                <ele>31.380127</ele>
                <time>2007-09-30T04:34:28Z</time>
            </trkpt>
            <trkpt lon="101.283878" lat="14.297844">
                <ele>33.783447</ele>
                <time>2007-09-30T04:34:40Z</time>
            </trkpt>
            <trkpt lon="101.283709" lat="14.297785">
                <ele>36.667480</ele>
                <time>2007-09-30T04:34:54Z</time>
            </trkpt>
            <trkpt lon="101.283708" lat="14.297788">
                <ele>36.186768</ele>
                <time>2007-09-30T04:35:02Z</time>
            </trkpt>
            <trkpt lon="101.283891" lat="14.297846">
                <ele>34.264160</ele>
                <time>2007-09-30T04:35:10Z</time>
            </trkpt>
            <trkpt lon="101.284250" lat="14.297937">
                <ele>31.380127</ele>
                <time>2007-09-30T04:35:23Z</time>
            </trkpt>
            <trkpt lon="101.284258" lat="14.297781">
                <ele>29.457520</ele>
                <time>2007-09-30T04:35:33Z</time>
            </trkpt>
            <trkpt lon="101.284150" lat="14.297681">
                <ele>29.938110</ele>
                <time>2007-09-30T04:35:38Z</time>
            </trkpt>
            <trkpt lon="101.283669" lat="14.297316">
                <ele>30.418823</ele>
                <time>2007-09-30T04:36:00Z</time>
            </trkpt>
            <trkpt lon="101.283570" lat="14.296951">
                <ele>29.457520</ele>
                <time>2007-09-30T04:36:16Z</time>
            </trkpt>
            <trkpt lon="101.283378" lat="14.296174">
                <ele>31.380127</ele>
                <time>2007-09-30T04:36:48Z</time>
            </trkpt>
            <trkpt lon="101.283122" lat="14.296172">
                <ele>33.302856</ele>
                <time>2007-09-30T04:37:04Z</time>
            </trkpt>
            <trkpt lon="101.282698" lat="14.296243">
                <ele>35.225464</ele>
                <time>2007-09-30T04:37:23Z</time>
            </trkpt>
            <trkpt lon="101.282483" lat="14.296625">
                <ele>26.092896</ele>
                <time>2007-09-30T04:37:42Z</time>
            </trkpt>
            <trkpt lon="101.282376" lat="14.296959">
                <ele>20.805664</ele>
                <time>2007-09-30T04:38:00Z</time>
            </trkpt>
            <trkpt lon="101.282296" lat="14.296975">
                <ele>23.208984</ele>
                <time>2007-09-30T04:38:17Z</time>
            </trkpt>
            <trkpt lon="101.282183" lat="14.297146">
                <ele>26.092896</ele>
                <time>2007-09-30T04:38:49Z</time>
            </trkpt>
            <trkpt lon="101.281913" lat="14.297486">
                <ele>26.573608</ele>
                <time>2007-09-30T04:39:08Z</time>
            </trkpt>
            <trkpt lon="101.281702" lat="14.297542">
                <ele>27.054321</ele>
                <time>2007-09-30T04:39:23Z</time>
            </trkpt>
            <trkpt lon="101.281296" lat="14.297650">
                <ele>25.612305</ele>
                <time>2007-09-30T04:39:42Z</time>
            </trkpt>
            <trkpt lon="101.280979" lat="14.297719">
                <ele>25.612305</ele>
                <time>2007-09-30T04:39:58Z</time>
            </trkpt>
            <trkpt lon="101.280899" lat="14.297639">
                <ele>25.612305</ele>
                <time>2007-09-30T04:40:03Z</time>
            </trkpt>
            <trkpt lon="101.280921" lat="14.297530">
                <ele>24.170288</ele>
                <time>2007-09-30T04:40:08Z</time>
            </trkpt>
            <trkpt lon="101.281054" lat="14.297161">
                <ele>26.092896</ele>
                <time>2007-09-30T04:40:24Z</time>
            </trkpt>
            <trkpt lon="101.281090" lat="14.296782">
                <ele>23.689575</ele>
                <time>2007-09-30T04:40:40Z</time>
            </trkpt>
            <trkpt lon="101.281134" lat="14.296232">
                <ele>23.689575</ele>
                <time>2007-09-30T04:40:56Z</time>
            </trkpt>
            <trkpt lon="101.281241" lat="14.296076">
                <ele>23.689575</ele>
                <time>2007-09-30T04:41:02Z</time>
            </trkpt>
            <trkpt lon="101.281276" lat="14.296089">
                <ele>23.208984</ele>
                <time>2007-09-30T04:41:10Z</time>
            </trkpt>
            <trkpt lon="101.281344" lat="14.296153">
                <ele>23.689575</ele>
                <time>2007-09-30T04:41:17Z</time>
            </trkpt>
            <trkpt lon="101.281675" lat="14.296213">
                <ele>23.208984</ele>
                <time>2007-09-30T04:41:34Z</time>
            </trkpt>
            <trkpt lon="101.281666" lat="14.296216">
                <ele>24.651001</ele>
                <time>2007-09-30T04:41:42Z</time>
            </trkpt>
            <trkpt lon="101.281390" lat="14.296111">
                <ele>25.131714</ele>
                <time>2007-09-30T04:41:59Z</time>
            </trkpt>
            <trkpt lon="101.281168" lat="14.296286">
                <ele>26.573608</ele>
                <time>2007-09-30T04:42:09Z</time>
            </trkpt>
            <trkpt lon="101.281127" lat="14.296693">
                <ele>26.092896</ele>
                <time>2007-09-30T04:42:22Z</time>
            </trkpt>
            <trkpt lon="101.281095" lat="14.297030">
                <ele>25.131714</ele>
                <time>2007-09-30T04:42:36Z</time>
            </trkpt>
            <trkpt lon="101.281030" lat="14.297297">
                <ele>26.573608</ele>
                <time>2007-09-30T04:42:51Z</time>
            </trkpt>
            <trkpt lon="101.280936" lat="14.297533">
                <ele>27.054321</ele>
                <time>2007-09-30T04:43:04Z</time>
            </trkpt>
            <trkpt lon="101.280922" lat="14.297732">
                <ele>27.534912</ele>
                <time>2007-09-30T04:43:16Z</time>
            </trkpt>
            <trkpt lon="101.280620" lat="14.297852">
                <ele>29.938110</ele>
                <time>2007-09-30T04:43:33Z</time>
            </trkpt>
            <trkpt lon="101.280253" lat="14.297924">
                <ele>32.822266</ele>
                <time>2007-09-30T04:43:52Z</time>
            </trkpt>
            <trkpt lon="101.280200" lat="14.297972">
                <ele>33.783447</ele>
                <time>2007-09-30T04:43:57Z</time>
            </trkpt>
            <trkpt lon="101.280109" lat="14.298234">
                <ele>31.380127</ele>
                <time>2007-09-30T04:44:14Z</time>
            </trkpt>
            <trkpt lon="101.280040" lat="14.298532">
                <ele>28.976929</ele>
                <time>2007-09-30T04:44:33Z</time>
            </trkpt>
            <trkpt lon="101.279953" lat="14.298714">
                <ele>29.457520</ele>
                <time>2007-09-30T04:44:48Z</time>
            </trkpt>
            <trkpt lon="101.279904" lat="14.298779">
                <ele>28.976929</ele>
                <time>2007-09-30T04:45:04Z</time>
            </trkpt>
            <trkpt lon="101.279881" lat="14.298802">
                <ele>31.860718</ele>
                <time>2007-09-30T04:45:27Z</time>
            </trkpt>
            <trkpt lon="101.279862" lat="14.298843">
                <ele>31.380127</ele>
                <time>2007-09-30T04:45:41Z</time>
            </trkpt>
            <trkpt lon="101.279856" lat="14.298841">
                <ele>31.380127</ele>
                <time>2007-09-30T04:45:42Z</time>
            </trkpt>
            <trkpt lon="101.279769" lat="14.298623">
                <ele>28.496216</ele>
                <time>2007-09-30T04:45:53Z</time>
            </trkpt>
            <trkpt lon="101.279853" lat="14.298062">
                <ele>26.573608</ele>
                <time>2007-09-30T04:46:13Z</time>
            </trkpt>
            <trkpt lon="101.279899" lat="14.297607">
                <ele>22.728271</ele>
                <time>2007-09-30T04:46:31Z</time>
            </trkpt>
            <trkpt lon="101.279946" lat="14.297127">
                <ele>20.324951</ele>
                <time>2007-09-30T04:46:49Z</time>
            </trkpt>
            <trkpt lon="101.280016" lat="14.296639">
                <ele>17.441162</ele>
                <time>2007-09-30T04:47:07Z</time>
            </trkpt>
            <trkpt lon="101.280087" lat="14.296207">
                <ele>15.999023</ele>
                <time>2007-09-30T04:47:22Z</time>
            </trkpt>
            <trkpt lon="101.280171" lat="14.295749">
                <ele>14.557007</ele>
                <time>2007-09-30T04:47:36Z</time>
            </trkpt>
            <trkpt lon="101.280232" lat="14.295170">
                <ele>14.076416</ele>
                <time>2007-09-30T04:47:51Z</time>
            </trkpt>
            <trkpt lon="101.280098" lat="14.294689">
                <ele>15.037720</ele>
                <time>2007-09-30T04:48:06Z</time>
            </trkpt>
            <trkpt lon="101.280050" lat="14.294410">
                <ele>15.037720</ele>
                <time>2007-09-30T04:48:15Z</time>
            </trkpt>
            <trkpt lon="101.280325" lat="14.294203">
                <ele>15.037720</ele>
                <time>2007-09-30T04:48:27Z</time>
            </trkpt>
            <trkpt lon="101.280427" lat="14.294108">
                <ele>15.518433</ele>
                <time>2007-09-30T04:48:31Z</time>
            </trkpt>
            <trkpt lon="101.281053" lat="14.293555">
                <ele>15.037720</ele>
                <time>2007-09-30T04:48:48Z</time>
            </trkpt>
            <trkpt lon="101.281308" lat="14.293219">
                <ele>15.037720</ele>
                <time>2007-09-30T04:48:56Z</time>
            </trkpt>
            <trkpt lon="101.281461" lat="14.292936">
                <ele>14.557007</ele>
                <time>2007-09-30T04:49:02Z</time>
            </trkpt>
            <trkpt lon="101.281607" lat="14.292775">
                <ele>14.076416</ele>
                <time>2007-09-30T04:49:06Z</time>
            </trkpt>
            <trkpt lon="101.281677" lat="14.292645">
                <ele>14.076416</ele>
                <time>2007-09-30T04:49:09Z</time>
            </trkpt>
            <trkpt lon="101.281642" lat="14.292437">
                <ele>15.037720</ele>
                <time>2007-09-30T04:49:18Z</time>
            </trkpt>
            <trkpt lon="101.281594" lat="14.292402">
                <ele>15.999023</ele>
                <time>2007-09-30T04:49:39Z</time>
            </trkpt>
            <trkpt lon="101.281548" lat="14.292313">
                <ele>15.518433</ele>
                <time>2007-09-30T04:49:45Z</time>
            </trkpt>
            <trkpt lon="101.281337" lat="14.291927">
                <ele>15.518433</ele>
                <time>2007-09-30T04:50:00Z</time>
            </trkpt>
            <trkpt lon="101.281533" lat="14.291496">
                <ele>15.518433</ele>
                <time>2007-09-30T04:50:13Z</time>
            </trkpt>
            <trkpt lon="101.281714" lat="14.291129">
                <ele>17.441162</ele>
                <time>2007-09-30T04:50:23Z</time>
            </trkpt>
            <trkpt lon="101.282092" lat="14.290491">
                <ele>17.921753</ele>
                <time>2007-09-30T04:50:40Z</time>
            </trkpt>
            <trkpt lon="101.282481" lat="14.290188">
                <ele>17.441162</ele>
                <time>2007-09-30T04:50:52Z</time>
            </trkpt>
            <trkpt lon="101.282865" lat="14.289787">
                <ele>16.479736</ele>
                <time>2007-09-30T04:51:07Z</time>
            </trkpt>
            <trkpt lon="101.283044" lat="14.289784">
                <ele>16.960449</ele>
                <time>2007-09-30T04:51:17Z</time>
            </trkpt>
            <trkpt lon="101.283664" lat="14.290080">
                <ele>15.518433</ele>
                <time>2007-09-30T04:51:33Z</time>
            </trkpt>
            <trkpt lon="101.284600" lat="14.290592">
                <ele>15.999023</ele>
                <time>2007-09-30T04:51:53Z</time>
            </trkpt>
            <trkpt lon="101.285450" lat="14.291203">
                <ele>15.518433</ele>
                <time>2007-09-30T04:52:13Z</time>
            </trkpt>
            <trkpt lon="101.286549" lat="14.291976">
                <ele>15.518433</ele>
                <time>2007-09-30T04:52:37Z</time>
            </trkpt>
            <trkpt lon="101.287357" lat="14.292546">
                <ele>16.479736</ele>
                <time>2007-09-30T04:52:56Z</time>
            </trkpt>
            <trkpt lon="101.287816" lat="14.292867">
                <ele>16.479736</ele>
                <time>2007-09-30T04:53:07Z</time>
            </trkpt>
            <trkpt lon="101.288066" lat="14.293029">
                <ele>16.479736</ele>
                <time>2007-09-30T04:53:13Z</time>
            </trkpt>
            <trkpt lon="101.288934" lat="14.293673">
                <ele>17.441162</ele>
                <time>2007-09-30T04:53:35Z</time>
            </trkpt>
            <trkpt lon="101.289009" lat="14.293724">
                <ele>17.441162</ele>
                <time>2007-09-30T04:53:37Z</time>
            </trkpt>
            <trkpt lon="101.289734" lat="14.294236">
                <ele>17.441162</ele>
                <time>2007-09-30T04:53:57Z</time>
            </trkpt>
            <trkpt lon="101.290387" lat="14.294704">
                <ele>17.441162</ele>
                <time>2007-09-30T04:54:16Z</time>
            </trkpt>
            <trkpt lon="101.291179" lat="14.295266">
                <ele>19.844360</ele>
                <time>2007-09-30T04:54:40Z</time>
            </trkpt>
            <trkpt lon="101.291618" lat="14.295583">
                <ele>20.324951</ele>
                <time>2007-09-30T04:54:56Z</time>
            </trkpt>
            <trkpt lon="101.292224" lat="14.296173">
                <ele>22.247559</ele>
                <time>2007-09-30T04:55:19Z</time>
            </trkpt>
            <trkpt lon="101.292397" lat="14.296946">
                <ele>23.689575</ele>
                <time>2007-09-30T04:55:38Z</time>
            </trkpt>
            <trkpt lon="101.292498" lat="14.297486">
                <ele>24.651001</ele>
                <time>2007-09-30T04:55:52Z</time>
            </trkpt>
            <trkpt lon="101.292598" lat="14.297956">
                <ele>25.612305</ele>
                <time>2007-09-30T04:56:08Z</time>
            </trkpt>
            <trkpt lon="101.292662" lat="14.298142">
                <ele>25.612305</ele>
                <time>2007-09-30T04:56:26Z</time>
            </trkpt>
            <trkpt lon="101.292777" lat="14.298758">
                <ele>25.131714</ele>
                <time>2007-09-30T04:56:41Z</time>
            </trkpt>
            <trkpt lon="101.292990" lat="14.299745">
                <ele>25.612305</ele>
                <time>2007-09-30T04:57:03Z</time>
            </trkpt>
            <trkpt lon="101.293178" lat="14.300649">
                <ele>26.092896</ele>
                <time>2007-09-30T04:57:23Z</time>
            </trkpt>
            <trkpt lon="101.293348" lat="14.301459">
                <ele>26.092896</ele>
                <time>2007-09-30T04:57:40Z</time>
            </trkpt>
            <trkpt lon="101.293486" lat="14.302428">
                <ele>26.092896</ele>
                <time>2007-09-30T04:58:01Z</time>
            </trkpt>
            <trkpt lon="101.293452" lat="14.303391">
                <ele>27.534912</ele>
                <time>2007-09-30T04:58:24Z</time>
            </trkpt>
            <trkpt lon="101.293419" lat="14.304294">
                <ele>28.496216</ele>
                <time>2007-09-30T04:58:46Z</time>
            </trkpt>
            <trkpt lon="101.293390" lat="14.305175">
                <ele>28.976929</ele>
                <time>2007-09-30T04:59:07Z</time>
            </trkpt>
            <trkpt lon="101.293364" lat="14.305952">
                <ele>30.899536</ele>
                <time>2007-09-30T04:59:26Z</time>
            </trkpt>
            <trkpt lon="101.293342" lat="14.306831">
                <ele>30.899536</ele>
                <time>2007-09-30T04:59:47Z</time>
            </trkpt>
            <trkpt lon="101.293372" lat="14.307482">
                <ele>33.783447</ele>
                <time>2007-09-30T05:00:04Z</time>
            </trkpt>
            <trkpt lon="101.293696" lat="14.308334">
                <ele>33.302856</ele>
                <time>2007-09-30T05:00:24Z</time>
            </trkpt>
            <trkpt lon="101.294193" lat="14.309283">
                <ele>32.822266</ele>
                <time>2007-09-30T05:00:46Z</time>
            </trkpt>
            <trkpt lon="101.294647" lat="14.310152">
                <ele>32.822266</ele>
                <time>2007-09-30T05:01:06Z</time>
            </trkpt>
            <trkpt lon="101.295160" lat="14.311124">
                <ele>32.341553</ele>
                <time>2007-09-30T05:01:27Z</time>
            </trkpt>
            <trkpt lon="101.295586" lat="14.311942">
                <ele>33.302856</ele>
                <time>2007-09-30T05:01:45Z</time>
            </trkpt>
            <trkpt lon="101.296034" lat="14.312800">
                <ele>33.783447</ele>
                <time>2007-09-30T05:02:06Z</time>
            </trkpt>
            <trkpt lon="101.296537" lat="14.313455">
                <ele>32.822266</ele>
                <time>2007-09-30T05:02:27Z</time>
            </trkpt>
            <trkpt lon="101.296594" lat="14.313508">
                <ele>33.302856</ele>
                <time>2007-09-30T05:02:37Z</time>
            </trkpt>
            <trkpt lon="101.296672" lat="14.313561">
                <ele>33.302856</ele>
                <time>2007-09-30T05:03:16Z</time>
            </trkpt>
            <trkpt lon="101.297138" lat="14.313929">
                <ele>32.341553</ele>
                <time>2007-09-30T05:03:28Z</time>
            </trkpt>
            <trkpt lon="101.298165" lat="14.314727">
                <ele>30.899536</ele>
                <time>2007-09-30T05:03:49Z</time>
            </trkpt>
            <trkpt lon="101.298823" lat="14.315252">
                <ele>29.938110</ele>
                <time>2007-09-30T05:04:06Z</time>
            </trkpt>
            <trkpt lon="101.298825" lat="14.315260">
                <ele>30.418823</ele>
                <time>2007-09-30T05:04:20Z</time>
            </trkpt>
            <trkpt lon="101.298832" lat="14.315271">
                <ele>32.822266</ele>
                <time>2007-09-30T05:04:48Z</time>
            </trkpt>
            <trkpt lon="101.298822" lat="14.315276">
                <ele>33.783447</ele>
                <time>2007-09-30T05:07:07Z</time>
            </trkpt>
            <trkpt lon="101.299166" lat="14.315525">
                <ele>31.860718</ele>
                <time>2007-09-30T05:07:19Z</time>
            </trkpt>
            <trkpt lon="101.300048" lat="14.316196">
                <ele>29.457520</ele>
                <time>2007-09-30T05:07:37Z</time>
            </trkpt>
            <trkpt lon="101.300949" lat="14.316884">
                <ele>28.976929</ele>
                <time>2007-09-30T05:07:54Z</time>
            </trkpt>
            <trkpt lon="101.302007" lat="14.317783">
                <ele>28.496216</ele>
                <time>2007-09-30T05:08:14Z</time>
            </trkpt>
            <trkpt lon="101.302869" lat="14.318701">
                <ele>28.496216</ele>
                <time>2007-09-30T05:08:34Z</time>
            </trkpt>
            <trkpt lon="101.303701" lat="14.319564">
                <ele>28.496216</ele>
                <time>2007-09-30T05:08:53Z</time>
            </trkpt>
            <trkpt lon="101.304755" lat="14.320708">
                <ele>28.976929</ele>
                <time>2007-09-30T05:09:18Z</time>
            </trkpt>
            <trkpt lon="101.305520" lat="14.321299">
                <ele>28.976929</ele>
                <time>2007-09-30T05:09:35Z</time>
            </trkpt>
            <trkpt lon="101.306555" lat="14.321694">
                <ele>28.496216</ele>
                <time>2007-09-30T05:09:54Z</time>
            </trkpt>
            <trkpt lon="101.307407" lat="14.321793">
                <ele>28.976929</ele>
                <time>2007-09-30T05:10:10Z</time>
            </trkpt>
            <trkpt lon="101.307771" lat="14.321728">
                <ele>28.976929</ele>
                <time>2007-09-30T05:10:16Z</time>
            </trkpt>
            <trkpt lon="101.308651" lat="14.321877">
                <ele>28.015503</ele>
                <time>2007-09-30T05:10:29Z</time>
            </trkpt>
            <trkpt lon="101.310011" lat="14.322265">
                <ele>26.573608</ele>
                <time>2007-09-30T05:10:50Z</time>
            </trkpt>
            <trkpt lon="101.311242" lat="14.322646">
                <ele>26.092896</ele>
                <time>2007-09-30T05:11:09Z</time>
            </trkpt>
            <trkpt lon="101.312167" lat="14.322903">
                <ele>28.496216</ele>
                <time>2007-09-30T05:11:27Z</time>
            </trkpt>
            <trkpt lon="101.312797" lat="14.323061">
                <ele>29.938110</ele>
                <time>2007-09-30T05:11:41Z</time>
            </trkpt>
            <trkpt lon="101.313390" lat="14.323238">
                <ele>30.418823</ele>
                <time>2007-09-30T05:11:57Z</time>
            </trkpt>
            <trkpt lon="101.314208" lat="14.323555">
                <ele>28.976929</ele>
                <time>2007-09-30T05:12:18Z</time>
            </trkpt>
            <trkpt lon="101.314816" lat="14.324126">
                <ele>28.976929</ele>
                <time>2007-09-30T05:12:35Z</time>
            </trkpt>
            <trkpt lon="101.314950" lat="14.324278">
                <ele>28.976929</ele>
                <time>2007-09-30T05:12:39Z</time>
            </trkpt>
            <trkpt lon="101.315508" lat="14.324793">
                <ele>32.341553</ele>
                <time>2007-09-30T05:12:55Z</time>
            </trkpt>
            <trkpt lon="101.315687" lat="14.324991">
                <ele>33.302856</ele>
                <time>2007-09-30T05:13:01Z</time>
            </trkpt>
            <trkpt lon="101.315922" lat="14.325093">
                <ele>33.783447</ele>
                <time>2007-09-30T05:13:11Z</time>
            </trkpt>
            <trkpt lon="101.316370" lat="14.324919">
                <ele>35.225464</ele>
                <time>2007-09-30T05:13:25Z</time>
            </trkpt>
            <trkpt lon="101.316450" lat="14.324899">
                <ele>35.706055</ele>
                <time>2007-09-30T05:13:27Z</time>
            </trkpt>
            <trkpt lon="101.316449" lat="14.324632">
                <ele>34.744873</ele>
                <time>2007-09-30T05:13:34Z</time>
            </trkpt>
            <trkpt lon="101.316005" lat="14.323901">
                <ele>37.148071</ele>
                <time>2007-09-30T05:13:52Z</time>
            </trkpt>
            <trkpt lon="101.315653" lat="14.323207">
                <ele>38.109375</ele>
                <time>2007-09-30T05:14:12Z</time>
            </trkpt>
            <trkpt lon="101.315649" lat="14.323191">
                <ele>39.551270</ele>
                <time>2007-09-30T05:14:22Z</time>
            </trkpt>
        </trkseg>
    </trk>
</gpx>